PWSweather.com
Personal Weather Stations
Station Observations
BWSWX1
Teesside, BillinghamGB TS23 1DL

TeessideBillinghamGB TS23 1DL

Lat: 54.588219, Lon: -1.289528

Elevation: 39

Station Type: Davis Vantage Pro2 Plus

http://billinghamweather.com/index.php

Latest ConditionsUpdated 9:10:11 AM GMT Saturday, Sep 23, 2017
Currently Today's Max Today's Min Today's Average
Temperature 59.1°F15.1°C 59.1°F15.1°C 53.1°F11.7°C 55.2°F12.9°C
Dew Point 55.5°F13.1°C 56.0°F13.3°C 50.6°F10.3°C 52.4°F11.3°C
Winds 2.3 mph WSW3.7 kmh WSW 3.6 mph SSE5.8 kmh SSE - 0.8 mph 1.3 kmh
Wind Gusts 3.0 mph4.8 kmh 7.0 mph11.3 kmh - -
Humidity 88% 93% 88% 91%
Pressure 30.08 in1018.6 mb 30.08 in1018.6 mb 30.04 in1017.3 mb -
Hour Temp Dew Point Humidity Winds Wind Gusts Pressure Precip Precip Rate Daily Precip Total
09:10 AM 59.1°F15.1°C 55.5°F13.1°C 88% 2.3 mph WSW3.7 kmh WSW 3.0 mph4.8 kmh 30.08 in1018.6 mb - 0.00 in0.0 mm 0.00 in0.0 mm
09:00 AM 58.8°F14.9°C 55.6°F13.1°C 89% 3.6 mph SSE5.8 kmh SSE 6.0 mph9.7 kmh 30.08 in1018.6 mb - 0.00 in0.0 mm 0.00 in0.0 mm
08:50 AM 58.6°F14.8°C 56.0°F13.3°C 91% 1.4 mph S2.3 kmh S 7.0 mph11.3 kmh 30.08 in1018.6 mb - 0.00 in0.0 mm 0.00 in0.0 mm
08:40 AM 57.7°F14.3°C 55.7°F13.2°C 93% 1.6 mph SSE2.6 kmh SSE 4.0 mph6.4 kmh 30.08 in1018.6 mb - 0.00 in0.0 mm 0.00 in0.0 mm
08:30 AM 56.9°F13.8°C 54.6°F12.6°C 92% 1.9 mph S3.1 kmh S 3.0 mph4.8 kmh 30.08 in1018.6 mb - 0.00 in0.0 mm 0.00 in0.0 mm
08:20 AM 56.6°F13.7°C 54.6°F12.6°C 93% 1.2 mph S1.9 kmh S 2.0 mph3.2 kmh 30.08 in1018.6 mb - 0.00 in0.0 mm 0.00 in0.0 mm
08:10 AM 56.0°F13.3°C 54.0°F12.2°C 93% 1.2 mph SW1.9 kmh SW 5.0 mph8.0 kmh 30.08 in1018.6 mb - 0.00 in0.0 mm 0.00 in0.0 mm
08:00 AM 55.5°F13.1°C 53.5°F11.9°C 93% 0.6 mph S1.0 kmh S 1.0 mph1.6 kmh 30.08 in1018.6 mb - 0.00 in0.0 mm 0.00 in0.0 mm
07:50 AM 54.8°F12.7°C 52.8°F11.6°C 93% 0.6 mph S1.0 kmh S 3.0 mph4.8 kmh 30.07 in1018.3 mb - 0.00 in0.0 mm 0.00 in0.0 mm
07:40 AM 54.2°F12.3°C 52.2°F11.2°C 93% Calm Calm 1.0 mph1.6 kmh 30.07 in1018.3 mb - 0.00 in0.0 mm 0.00 in0.0 mm
07:30 AM 53.9°F12.2°C 51.9°F11.1°C 93% Calm Calm -- 30.07 in1018.3 mb - 0.00 in0.0 mm 0.00 in0.0 mm
07:20 AM 53.6°F12.0°C 51.6°F10.9°C 93% Calm Calm -- 30.07 in1018.3 mb - 0.00 in0.0 mm 0.00 in0.0 mm
07:10 AM 53.4°F11.9°C 51.1°F10.6°C 92% Calm Calm -- 30.07 in1018.3 mb - 0.00 in0.0 mm 0.00 in0.0 mm
07:00 AM 53.2°F11.8°C 50.9°F10.5°C 92% 0.3 mph S0.5 kmh S 1.0 mph1.6 kmh 30.07 in1018.3 mb - 0.00 in0.0 mm 0.00 in0.0 mm
06:50 AM 53.1°F11.7°C 50.9°F10.5°C 92% 0.5 mph S0.8 kmh S 1.0 mph1.6 kmh 30.06 in1017.9 mb - 0.00 in0.0 mm 0.00 in0.0 mm
06:40 AM 53.1°F11.7°C 50.8°F10.4°C 92% 0.3 mph SE0.5 kmh SE 2.0 mph3.2 kmh 30.06 in1017.9 mb - 0.00 in0.0 mm 0.00 in0.0 mm
06:30 AM 53.2°F11.8°C 50.6°F10.3°C 91% 0.9 mph SE1.4 kmh SE 2.0 mph3.2 kmh 30.06 in1017.9 mb - 0.00 in0.0 mm 0.00 in0.0 mm
06:20 AM 53.5°F11.9°C 51.2°F10.7°C 92% Calm Calm 1.0 mph1.6 kmh 30.07 in1018.3 mb - 0.00 in0.0 mm 0.00 in0.0 mm
06:10 AM 53.7°F12.1°C 51.1°F10.6°C 91% 0.3 mph SE0.5 kmh SE 1.0 mph1.6 kmh 30.06 in1017.9 mb - 0.00 in0.0 mm 0.00 in0.0 mm
06:00 AM 54.0°F12.2°C 51.4°F10.8°C 91% 0.3 mph SE0.5 kmh SE 2.0 mph3.2 kmh 30.06 in1017.9 mb - 0.00 in0.0 mm 0.00 in0.0 mm
05:50 AM 54.3°F12.4°C 51.7°F10.9°C 91% 0.3 mph SE0.5 kmh SE 1.0 mph1.6 kmh 30.05 in1017.6 mb - 0.00 in0.0 mm 0.00 in0.0 mm
05:40 AM 54.6°F12.6°C 52.0°F11.1°C 91% Calm Calm -- 30.06 in1017.9 mb - 0.00 in0.0 mm 0.00 in0.0 mm
05:30 AM 54.8°F12.7°C 52.2°F11.2°C 91% 0.8 mph SE1.3 kmh SE 2.0 mph3.2 kmh 30.06 in1017.9 mb - 0.00 in0.0 mm 0.00 in0.0 mm
05:20 AM 55.0°F12.8°C 52.4°F11.3°C 91% 0.2 mph SE0.3 kmh SE 1.0 mph1.6 kmh 30.05 in1017.6 mb - 0.00 in0.0 mm 0.00 in0.0 mm
05:10 AM 55.1°F12.8°C 52.5°F11.4°C 91% 0.6 mph SE1.0 kmh SE 2.0 mph3.2 kmh 30.05 in1017.6 mb - 0.00 in0.0 mm 0.00 in0.0 mm
05:00 AM 55.1°F12.8°C 52.5°F11.4°C 91% 0.2 mph SE0.3 kmh SE 2.0 mph3.2 kmh 30.05 in1017.6 mb - 0.00 in0.0 mm 0.00 in0.0 mm
04:50 AM 55.2°F12.9°C 52.6°F11.4°C 91% 0.2 mph SE0.3 kmh SE -- 30.05 in1017.6 mb - 0.00 in0.0 mm 0.00 in0.0 mm
04:40 AM 55.3°F12.9°C 52.7°F11.5°C 91% 0.2 mph SE0.3 kmh SE 1.0 mph1.6 kmh 30.05 in1017.6 mb - 0.00 in0.0 mm 0.00 in0.0 mm
04:30 AM 55.3°F12.9°C 52.7°F11.5°C 91% 0.1 mph SE0.2 kmh SE 1.0 mph1.6 kmh 30.05 in1017.6 mb - 0.00 in0.0 mm 0.00 in0.0 mm
04:20 AM 55.3°F12.9°C 52.7°F11.5°C 91% Calm Calm -- 30.05 in1017.6 mb - 0.00 in0.0 mm 0.00 in0.0 mm
04:10 AM 55.4°F13.0°C 52.8°F11.6°C 91% 0.2 mph SE0.3 kmh SE 1.0 mph1.6 kmh 30.05 in1017.6 mb - 0.00 in0.0 mm 0.00 in0.0 mm
04:00 AM 55.4°F13.0°C 52.8°F11.6°C 91% 0.1 mph SE0.2 kmh SE -- 30.05 in1017.6 mb - 0.00 in0.0 mm 0.00 in0.0 mm
03:50 AM 55.4°F13.0°C 52.8°F11.6°C 91% 0.4 mph SE0.6 kmh SE 2.0 mph3.2 kmh 30.04 in1017.3 mb - 0.00 in0.0 mm 0.00 in0.0 mm
03:40 AM 55.3°F12.9°C 52.7°F11.5°C 91% 0.6 mph S1.0 kmh S 2.0 mph3.2 kmh 30.04 in1017.3 mb - 0.00 in0.0 mm 0.00 in0.0 mm
03:30 AM 55.0°F12.8°C 52.4°F11.3°C 91% 1.3 mph S2.1 kmh S 2.0 mph3.2 kmh 30.04 in1017.3 mb - 0.00 in0.0 mm 0.00 in0.0 mm
03:20 AM 54.8°F12.7°C 52.2°F11.2°C 91% 0.3 mph SW0.5 kmh SW 2.0 mph3.2 kmh 30.04 in1017.3 mb - 0.00 in0.0 mm 0.00 in0.0 mm
03:10 AM 54.6°F12.6°C 52.0°F11.1°C 91% 2.1 mph SSW3.4 kmh SSW 3.0 mph4.8 kmh 30.04 in1017.3 mb - 0.00 in0.0 mm 0.00 in0.0 mm
03:00 AM 54.2°F12.3°C 51.3°F10.7°C 90% 2.9 mph S4.7 kmh S 7.0 mph11.3 kmh 30.04 in1017.3 mb - 0.00 in0.0 mm 0.00 in0.0 mm
02:50 AM 54.2°F12.3°C 51.3°F10.7°C 90% 1.3 mph S2.1 kmh S 3.0 mph4.8 kmh 30.04 in1017.3 mb - 0.00 in0.0 mm 0.00 in0.0 mm
02:40 AM 54.4°F12.4°C 51.2°F10.7°C 89% 1.9 mph SE3.1 kmh SE 2.0 mph3.2 kmh 30.04 in1017.3 mb - 0.00 in0.0 mm 0.00 in0.0 mm
02:30 AM 54.6°F12.6°C 51.4°F10.8°C 89% 0.1 mph SSE0.2 kmh SSE 1.0 mph1.6 kmh 30.04 in1017.3 mb - 0.00 in0.0 mm 0.00 in0.0 mm
02:20 AM 54.9°F12.7°C 51.7°F10.9°C 89% Calm Calm -- 30.04 in1017.3 mb - 0.00 in0.0 mm 0.00 in0.0 mm
02:10 AM 55.2°F12.9°C 52.0°F11.1°C 89% 0.1 mph SSE0.2 kmh SSE 2.0 mph3.2 kmh 30.04 in1017.3 mb - 0.00 in0.0 mm 0.00 in0.0 mm
02:00 AM 55.4°F13.0°C 52.2°F11.2°C 89% 0.1 mph SSE0.2 kmh SSE 1.0 mph1.6 kmh 30.04 in1017.3 mb - 0.00 in0.0 mm 0.00 in0.0 mm
01:50 AM 55.5°F13.1°C 52.3°F11.3°C 89% 1.2 mph SE1.9 kmh SE 2.0 mph3.2 kmh 30.04 in1017.3 mb - 0.00 in0.0 mm 0.00 in0.0 mm
01:40 AM 55.6°F13.1°C 52.4°F11.3°C 89% 0.5 mph SE0.8 kmh SE 2.0 mph3.2 kmh 30.04 in1017.3 mb - 0.00 in0.0 mm 0.00 in0.0 mm
01:30 AM 55.6°F13.1°C 52.4°F11.3°C 89% 2.0 mph S3.2 kmh S 3.0 mph4.8 kmh 30.04 in1017.3 mb - 0.00 in0.0 mm 0.00 in0.0 mm
01:20 AM 55.7°F13.2°C 52.5°F11.4°C 89% 2.6 mph S4.2 kmh S 5.0 mph8.0 kmh 30.04 in1017.3 mb - 0.00 in0.0 mm 0.00 in0.0 mm
01:10 AM 55.7°F13.2°C 52.5°F11.4°C 89% 2.8 mph S4.5 kmh S 7.0 mph11.3 kmh 30.04 in1017.3 mb - 0.00 in0.0 mm 0.00 in0.0 mm
01:00 AM 55.7°F13.2°C 52.2°F11.2°C 88% 0.5 mph S0.8 kmh S 3.0 mph4.8 kmh 30.04 in1017.3 mb - 0.00 in0.0 mm 0.00 in0.0 mm
12:50 AM 55.7°F13.2°C 52.2°F11.2°C 88% 0.9 mph SSE1.4 kmh SSE 3.0 mph4.8 kmh 30.04 in1017.3 mb - 0.00 in0.0 mm 0.00 in0.0 mm
12:40 AM 55.8°F13.2°C 52.3°F11.3°C 88% 2.0 mph S3.2 kmh S 4.0 mph6.4 kmh 30.04 in1017.3 mb - 0.00 in0.0 mm 0.00 in0.0 mm
12:30 AM 55.9°F13.3°C 52.4°F11.3°C 88% 1.0 mph S1.6 kmh S 1.0 mph1.6 kmh 30.04 in1017.3 mb - 0.00 in0.0 mm 0.00 in0.0 mm
12:20 AM 55.8°F13.2°C 52.3°F11.3°C 88% 0.8 mph S1.3 kmh S 3.0 mph4.8 kmh 30.04 in1017.3 mb - 0.00 in0.0 mm 0.00 in0.0 mm
12:10 AM 55.8°F13.2°C 52.3°F11.3°C 88% 0.1 mph S0.2 kmh S 1.0 mph1.6 kmh 30.05 in1017.6 mb - 0.00 in0.0 mm 0.00 in0.0 mm
12:00 AM 55.8°F13.2°C 52.3°F11.3°C 88% Calm Calm -- 30.05 in1017.6 mb - 0.00 in0.0 mm 0.00 in0.0 mm